Time;durP1;ratioP1;P1;durP2;ratioP2;P2;SDS_P1;SDS_P2;PMS_P1;PMS_P2;Temp;Humidity;BMP_temperature;BMP_pressure;BME280_temperature;BME280_humidity;BME280_pressure;Samples;Min_cycle;Max_cycle;Signal;HPM_P1;HPM_P2
2022/03/25 00:01:32;;;;;;;39.73;25.73;;;;;;;;;;5043996;28;20268;-69
2022/03/25 00:03:58;;;;;;;41.17;24.80;;;;;;;;;;5048059;28;20188;-69
2022/03/25 00:06:26;;;;;;;41.33;26.03;;;;;;;;;;5039853;28;20177;-70
2022/03/25 00:08:51;;;;;;;40.47;26.27;;;;;;;;;;5046720;28;20206;-71
2022/03/25 00:11:16;;;;;;;46.10;27.37;;;;;;;;;;5047938;28;20177;-70
2022/03/25 00:13:42;;;;;;;40.73;26.50;;;;;;;;;;5048947;28;20193;-72
2022/03/25 00:16:07;;;;;;;44.10;27.83;;;;;;;;;;5048532;28;20187;-69
2022/03/25 00:18:32;;;;;;;44.77;27.53;;;;;;;;;;5049994;28;20224;-71
2022/03/25 00:20:58;;;;;;;43.07;27.23;;;;;;;;;;5050768;28;20208;-72
2022/03/25 00:23:23;;;;;;;43.43;27.67;;;;;;;;;;5050206;28;20180;-71
2022/03/25 00:25:48;;;;;;;43.23;27.90;;;;;;;;;;5049743;28;20543;-69
2022/03/25 00:28:13;;;;;;;45.87;28.73;;;;;;;;;;5048784;28;20201;-69
2022/03/25 00:30:38;;;;;;;42.23;27.17;;;;;;;;;;5046243;28;20189;-70
2022/03/25 00:33:04;;;;;;;43.77;29.50;;;;;;;;;;5049584;28;20185;-70
2022/03/25 00:35:30;;;;;;;45.80;28.97;;;;;;;;;;5038405;28;20711;-70
2022/03/25 00:37:55;;;;;;;45.97;29.23;;;;;;;;;;5044361;28;20605;-71
2022/03/25 00:40:20;;;;;;;45.50;29.20;;;;;;;;;;5043077;28;20175;-71
2022/03/25 00:42:45;;;;;;;48.57;28.87;;;;;;;;;;5045092;28;20205;-69
2022/03/25 00:45:11;;;;;;;48.07;31.07;;;;;;;;;;5048963;28;20264;-69
2022/03/25 00:47:36;;;;;;;48.67;30.10;;;;;;;;;;5049523;28;20194;-72
2022/03/25 00:50:01;;;;;;;41.77;27.93;;;;;;;;;;5047082;28;20184;-70
2022/03/25 00:52:27;;;;;;;42.77;28.07;;;;;;;;;;5048569;28;20182;-72
2022/03/25 00:54:53;;;;;;;46.87;29.47;;;;;;;;;;5034343;28;20180;-71
2022/03/25 00:57:19;;;;;;;43.57;28.93;;;;;;;;;;5049275;28;20660;-69
2022/03/25 00:59:44;;;;;;;44.13;30.17;;;;;;;;;;5044177;28;20670;-70
2022/03/25 01:02:09;;;;;;;47.00;31.20;;;;;;;;;;5039581;28;20194;-70
2022/03/25 01:04:35;;;;;;;45.30;28.43;;;;;;;;;;5043500;28;20260;-70
2022/03/25 01:07:00;;;;;;;43.67;27.67;;;;;;;;;;5035879;28;20217;-70
2022/03/25 01:09:25;;;;;;;47.60;28.53;;;;;;;;;;5046071;28;20288;-70
2022/03/25 01:11:51;;;;;;;40.17;26.73;;;;;;;;;;5043575;28;20205;-70
2022/03/25 01:14:16;;;;;;;47.00;27.67;;;;;;;;;;5034060;28;20204;-70
2022/03/25 01:16:41;;;;;;;44.23;27.73;;;;;;;;;;5023645;28;20610;-70
2022/03/25 01:19:06;;;;;;;42.33;26.37;;;;;;;;;;5040752;28;20201;-70
2022/03/25 01:21:32;;;;;;;47.80;29.83;;;;;;;;;;5040163;28;20202;-70
2022/03/25 01:23:57;;;;;;;48.07;28.30;;;;;;;;;;5043203;28;20170;-70
2022/03/25 01:26:23;;;;;;;39.37;26.20;;;;;;;;;;5053793;28;20220;-70
2022/03/25 01:28:48;;;;;;;51.53;27.77;;;;;;;;;;5048792;28;20723;-71
2022/03/25 01:31:14;;;;;;;42.80;25.87;;;;;;;;;;5048197;28;20182;-71
2022/03/25 01:33:39;;;;;;;42.30;27.33;;;;;;;;;;5050745;28;20209;-69
2022/03/25 01:36:04;;;;;;;46.20;29.30;;;;;;;;;;5052764;28;20177;-69
2022/03/25 01:38:29;;;;;;;44.87;27.47;;;;;;;;;;5047569;28;20267;-70
2022/03/25 01:40:55;;;;;;;42.13;26.67;;;;;;;;;;5052526;28;20197;-70
2022/03/25 01:43:20;;;;;;;50.53;29.27;;;;;;;;;;5048392;28;20178;-70
2022/03/25 01:45:45;;;;;;;48.00;29.13;;;;;;;;;;5036993;28;20244;-70
2022/03/25 01:48:13;;;;;;;47.87;28.73;;;;;;;;;;5045988;28;20208;-70
2022/03/25 01:50:39;;;;;;;44.67;29.40;;;;;;;;;;5052124;28;20195;-71
2022/03/25 01:53:09;;;;;;;48.53;29.13;;;;;;;;;;5052446;28;20185;-71
2022/03/25 01:55:38;;;;;;;44.63;27.33;;;;;;;;;;5050445;28;20318;-70
2022/03/25 01:58:05;;;;;;;46.00;29.10;;;;;;;;;;5052722;28;20197;-70
2022/03/25 02:00:31;;;;;;;49.90;27.77;;;;;;;;;;5046739;28;20166;-70
2022/03/25 02:02:57;;;;;;;47.63;28.97;;;;;;;;;;5047399;28;20182;-70
2022/03/25 02:05:22;;;;;;;47.73;29.90;;;;;;;;;;5049659;28;20545;-71
2022/03/25 02:07:48;;;;;;;50.20;30.17;;;;;;;;;;5050731;28;20271;-69
2022/03/25 02:10:14;;;;;;;55.93;30.50;;;;;;;;;;5048799;28;20323;-69
2022/03/25 02:12:40;;;;;;;50.33;31.40;;;;;;;;;;5047483;28;20174;-71
2022/03/25 02:15:06;;;;;;;52.37;30.20;;;;;;;;;;5050273;28;20210;-72
2022/03/25 02:17:31;;;;;;;52.07;29.20;;;;;;;;;;5043790;28;20626;-72
2022/03/25 02:19:57;;;;;;;48.77;29.33;;;;;;;;;;5051493;28;20201;-69
2022/03/25 02:22:22;;;;;;;51.80;31.03;;;;;;;;;;5052410;28;20193;-70
2022/03/25 02:24:48;;;;;;;53.37;32.23;;;;;;;;;;5051072;28;20172;-71
2022/03/25 02:27:13;;;;;;;52.87;31.33;;;;;;;;;;5053357;28;20194;-69
2022/03/25 02:29:39;;;;;;;50.53;30.27;;;;;;;;;;5051074;28;20682;-69
2022/03/25 02:32:04;;;;;;;52.07;30.67;;;;;;;;;;5051152;28;20231;-69
2022/03/25 02:34:29;;;;;;;50.20;29.73;;;;;;;;;;5054831;28;20232;-69
2022/03/25 02:36:55;;;;;;;51.17;31.30;;;;;;;;;;5050036;28;20201;-69
2022/03/25 02:39:22;;;;;;;51.47;31.20;;;;;;;;;;5050003;28;20770;-69
2022/03/25 02:41:47;;;;;;;53.33;32.87;;;;;;;;;;5051596;28;20659;-69
2022/03/25 02:44:12;;;;;;;52.50;32.50;;;;;;;;;;5049740;28;20223;-68
2022/03/25 02:46:37;;;;;;;53.87;33.97;;;;;;;;;;5041470;28;20181;-69
2022/03/25 02:49:03;;;;;;;53.73;32.10;;;;;;;;;;5049878;28;20558;-69
2022/03/25 02:51:28;;;;;;;54.33;34.00;;;;;;;;;;5049990;28;20178;-69
2022/03/25 02:53:53;;;;;;;51.23;31.50;;;;;;;;;;5050578;28;20178;-69
2022/03/25 02:56:18;;;;;;;50.20;31.97;;;;;;;;;;5051826;28;20188;-68
2022/03/25 02:58:44;;;;;;;61.17;33.63;;;;;;;;;;5050066;28;20214;-69
2022/03/25 03:01:09;;;;;;;60.30;33.90;;;;;;;;;;5051161;28;20180;-69
2022/03/25 03:03:35;;;;;;;58.07;34.43;;;;;;;;;;5050255;28;20174;-68
2022/03/25 03:06:00;;;;;;;58.77;35.97;;;;;;;;;;5048439;28;20189;-69
2022/03/25 03:08:25;;;;;;;62.07;36.97;;;;;;;;;;5049729;28;20872;-69
2022/03/25 03:10:51;;;;;;;53.30;32.57;;;;;;;;;;5050073;28;20664;-69
2022/03/25 03:13:17;;;;;;;58.23;35.30;;;;;;;;;;5048255;28;20178;-69
2022/03/25 03:15:42;;;;;;;62.40;35.50;;;;;;;;;;5049469;28;20557;-69
2022/03/25 03:18:07;;;;;;;57.80;34.73;;;;;;;;;;5048285;28;20220;-68
2022/03/25 03:20:32;;;;;;;60.60;36.73;;;;;;;;;;5047343;28;20177;-69
2022/03/25 03:22:58;;;;;;;63.37;38.53;;;;;;;;;;5048261;28;20220;-69
2022/03/25 03:25:25;;;;;;;59.93;33.40;;;;;;;;;;5048447;28;20640;-69
2022/03/25 03:27:51;;;;;;;61.23;36.00;;;;;;;;;;5051330;28;20276;-69
2022/03/25 03:30:16;;;;;;;60.07;35.93;;;;;;;;;;5049440;28;20277;-69
2022/03/25 03:32:41;;;;;;;59.07;34.50;;;;;;;;;;5048648;28;20180;-69
2022/03/25 03:35:07;;;;;;;67.73;38.93;;;;;;;;;;5049600;28;20216;-69
2022/03/25 03:37:38;;;;;;;62.23;37.40;;;;;;;;;;5050181;28;20228;-69
2022/03/25 03:40:04;;;;;;;67.67;40.50;;;;;;;;;;5050757;28;20205;-69
2022/03/25 03:42:29;;;;;;;69.30;38.70;;;;;;;;;;5047192;28;20269;-69
2022/03/25 03:44:54;;;;;;;73.60;41.60;;;;;;;;;;5049991;28;20170;-70
2022/03/25 03:47:20;;;;;;;67.20;40.10;;;;;;;;;;5040269;28;20190;-69
2022/03/25 03:49:45;;;;;;;72.90;40.40;;;;;;;;;;5046586;28;20188;-69
2022/03/25 03:52:10;;;;;;;74.90;40.97;;;;;;;;;;5050103;28;20691;-69
2022/03/25 03:54:37;;;;;;;71.00;40.13;;;;;;;;;;5049534;28;20174;-69
2022/03/25 03:57:02;;;;;;;74.63;40.33;;;;;;;;;;5051361;28;20216;-69
2022/03/25 03:59:27;;;;;;;73.27;41.30;;;;;;;;;;5046015;28;22344;-69
2022/03/25 04:01:52;;;;;;;75.77;42.93;;;;;;;;;;5030491;28;20182;-69
2022/03/25 04:04:17;;;;;;;75.23;42.30;;;;;;;;;;5048397;28;20182;-69
2022/03/25 04:06:43;;;;;;;77.10;42.33;;;;;;;;;;5050499;28;20182;-70
2022/03/25 04:09:09;;;;;;;81.77;47.00;;;;;;;;;;5050905;28;20356;-68
2022/03/25 04:11:34;;;;;;;81.17;44.80;;;;;;;;;;5048446;28;20182;-69
2022/03/25 04:13:59;;;;;;;81.47;43.93;;;;;;;;;;5048151;28;20268;-69
2022/03/25 04:16:24;;;;;;;88.33;47.40;;;;;;;;;;5047217;28;20173;-68
2022/03/25 04:18:49;;;;;;;88.30;46.40;;;;;;;;;;5050425;28;20233;-68
2022/03/25 04:21:15;;;;;;;93.37;46.67;;;;;;;;;;5049975;28;20631;-68
2022/03/25 04:23:40;;;;;;;93.33;50.50;;;;;;;;;;5057653;28;20210;-69
2022/03/25 04:26:05;;;;;;;78.13;44.83;;;;;;;;;;5048920;28;20273;-68
2022/03/25 04:28:31;;;;;;;84.83;47.03;;;;;;;;;;5049981;28;20239;-69
2022/03/25 04:30:56;;;;;;;82.33;47.27;;;;;;;;;;5048449;28;20679;-69
2022/03/25 04:33:21;;;;;;;87.70;46.30;;;;;;;;;;5049231;28;20185;-69
2022/03/25 04:35:46;;;;;;;87.20;47.77;;;;;;;;;;5049757;28;20184;-69
2022/03/25 04:38:12;;;;;;;92.73;48.73;;;;;;;;;;5049291;28;20220;-69
2022/03/25 04:40:37;;;;;;;85.77;47.23;;;;;;;;;;5050523;28;20181;-69
2022/03/25 04:43:03;;;;;;;88.00;47.97;;;;;;;;;;5051340;28;20234;-68
2022/03/25 04:45:29;;;;;;;93.80;49.87;;;;;;;;;;5052444;28;20188;-69
2022/03/25 04:47:54;;;;;;;90.57;48.77;;;;;;;;;;5050858;28;20567;-68
2022/03/25 04:50:20;;;;;;;87.40;47.17;;;;;;;;;;5044123;28;20343;-69
2022/03/25 04:52:46;;;;;;;91.00;50.47;;;;;;;;;;5048924;28;20188;-69
2022/03/25 04:55:11;;;;;;;93.23;49.13;;;;;;;;;;5049716;28;20600;-69
2022/03/25 04:57:37;;;;;;;95.40;50.93;;;;;;;;;;5042381;28;20247;-69
2022/03/25 05:00:02;;;;;;;98.43;52.43;;;;;;;;;;5052411;28;20467;-69
2022/03/25 05:02:27;;;;;;;88.73;48.40;;;;;;;;;;5044660;28;20173;-69
2022/03/25 05:04:55;;;;;;;97.63;51.17;;;;;;;;;;5050103;28;20228;-69
2022/03/25 05:07:20;;;;;;;94.57;50.57;;;;;;;;;;5050746;28;20292;-69
2022/03/25 05:09:45;;;;;;;97.17;50.00;;;;;;;;;;5052558;28;20192;-69
2022/03/25 05:12:14;;;;;;;99.23;52.23;;;;;;;;;;5053910;28;20188;-69
2022/03/25 05:14:40;;;;;;;94.43;51.57;;;;;;;;;;5053005;28;20216;-69
2022/03/25 05:17:05;;;;;;;107.67;52.47;;;;;;;;;;5053197;28;20206;-69
2022/03/25 05:19:31;;;;;;;91.90;48.63;;;;;;;;;;5053320;28;20201;-69
2022/03/25 05:21:56;;;;;;;107.53;54.80;;;;;;;;;;5053715;28;20181;-70
2022/03/25 05:24:21;;;;;;;104.93;54.63;;;;;;;;;;5050148;28;20174;-70
2022/03/25 05:26:46;;;;;;;104.47;52.17;;;;;;;;;;5047888;28;20322;-69
2022/03/25 05:29:12;;;;;;;93.43;49.57;;;;;;;;;;5047417;28;20189;-70
2022/03/25 05:31:37;;;;;;;97.37;52.70;;;;;;;;;;5052517;28;20674;-69
2022/03/25 05:34:04;;;;;;;102.13;54.20;;;;;;;;;;5052782;28;20274;-69
2022/03/25 05:36:29;;;;;;;97.90;53.53;;;;;;;;;;5053223;28;20177;-69
2022/03/25 05:38:55;;;;;;;95.00;51.23;;;;;;;;;;5051748;28;20216;-69
2022/03/25 05:41:21;;;;;;;99.97;53.17;;;;;;;;;;5052807;28;20288;-69
2022/03/25 05:43:47;;;;;;;97.07;52.17;;;;;;;;;;5054299;28;20277;-69
2022/03/25 05:46:13;;;;;;;98.70;51.80;;;;;;;;;;5052048;28;20181;-69
2022/03/25 05:48:38;;;;;;;107.60;52.30;;;;;;;;;;5052862;28;20228;-69
2022/03/25 05:51:03;;;;;;;102.70;52.30;;;;;;;;;;5053475;28;20181;-69
2022/03/25 05:53:28;;;;;;;104.20;53.67;;;;;;;;;;5052385;28;20182;-70
2022/03/25 05:55:53;;;;;;;107.53;53.97;;;;;;;;;;5052939;28;20671;-69
2022/03/25 05:58:19;;;;;;;115.40;55.37;;;;;;;;;;5050550;28;20202;-69
2022/03/25 06:00:45;;;;;;;108.73;56.30;;;;;;;;;;5048056;28;20679;-70
2022/03/25 06:03:10;;;;;;;116.17;57.87;;;;;;;;;;5045038;28;20228;-69
2022/03/25 06:05:35;;;;;;;111.00;56.03;;;;;;;;;;5051768;28;20222;-69
2022/03/25 06:08:00;;;;;;;111.57;58.33;;;;;;;;;;5049717;28;20193;-69
2022/03/25 06:10:26;;;;;;;108.73;56.27;;;;;;;;;;5052227;28;20210;-69
2022/03/25 06:12:51;;;;;;;109.03;55.50;;;;;;;;;;5050677;28;20639;-69
2022/03/25 06:15:16;;;;;;;108.53;57.53;;;;;;;;;;5051377;28;20173;-69
2022/03/25 06:17:43;;;;;;;109.23;55.40;;;;;;;;;;5053088;28;20667;-69
2022/03/25 06:20:09;;;;;;;112.23;55.80;;;;;;;;;;5051511;28;20652;-69
2022/03/25 06:22:34;;;;;;;97.93;53.67;;;;;;;;;;5053522;28;20182;-70
2022/03/25 06:24:59;;;;;;;95.20;51.77;;;;;;;;;;5052089;28;20268;-69
2022/03/25 06:27:24;;;;;;;103.63;55.77;;;;;;;;;;5048687;28;20666;-68
2022/03/25 06:29:50;;;;;;;92.27;51.63;;;;;;;;;;5042161;28;20241;-69
2022/03/25 06:32:15;;;;;;;111.43;56.33;;;;;;;;;;5042075;28;20186;-69
2022/03/25 06:34:40;;;;;;;96.27;53.57;;;;;;;;;;5048941;28;20271;-70
2022/03/25 06:37:05;;;;;;;96.27;53.90;;;;;;;;;;5046198;28;20217;-69
2022/03/25 06:39:31;;;;;;;86.77;52.07;;;;;;;;;;5044234;28;20204;-69
2022/03/25 06:41:56;;;;;;;84.33;50.03;;;;;;;;;;5047992;28;20182;-68
2022/03/25 06:44:21;;;;;;;90.90;49.77;;;;;;;;;;5046256;28;20178;-69
2022/03/25 06:46:46;;;;;;;90.53;52.70;;;;;;;;;;5046690;28;20529;-69
2022/03/25 06:49:12;;;;;;;85.00;49.63;;;;;;;;;;5050664;28;20176;-69
2022/03/25 06:51:37;;;;;;;84.17;51.20;;;;;;;;;;5047440;28;20189;-69
2022/03/25 06:54:02;;;;;;;85.43;49.77;;;;;;;;;;5048240;28;20182;-68
2022/03/25 06:56:28;;;;;;;80.30;48.03;;;;;;;;;;5048413;28;20210;-69
2022/03/25 06:58:53;;;;;;;79.20;49.50;;;;;;;;;;5046653;28;20611;-69
2022/03/25 07:01:18;;;;;;;81.13;50.17;;;;;;;;;;5045543;28;20182;-69
2022/03/25 07:03:44;;;;;;;84.60;50.77;;;;;;;;;;5042390;28;20193;-69
2022/03/25 07:06:09;;;;;;;85.07;50.07;;;;;;;;;;5049005;28;20269;-70
2022/03/25 07:08:34;;;;;;;79.33;49.10;;;;;;;;;;5050651;28;20593;-70
2022/03/25 07:11:00;;;;;;;76.87;47.83;;;;;;;;;;5045972;28;20273;-71
2022/03/25 07:13:27;;;;;;;74.30;48.50;;;;;;;;;;5047869;28;20589;-67
2022/03/25 07:15:52;;;;;;;78.40;49.83;;;;;;;;;;5043317;28;20182;-68
2022/03/25 07:18:17;;;;;;;76.10;50.93;;;;;;;;;;5047476;28;20212;-68
2022/03/25 07:20:43;;;;;;;71.33;46.10;;;;;;;;;;5041255;28;20641;-68
2022/03/25 07:23:08;;;;;;;81.13;52.13;;;;;;;;;;5048981;28;20184;-70
2022/03/25 07:25:33;;;;;;;72.60;47.27;;;;;;;;;;5048341;28;20644;-70
2022/03/25 07:27:58;;;;;;;70.00;46.43;;;;;;;;;;5051814;28;20189;-68
2022/03/25 07:30:24;;;;;;;75.47;46.37;;;;;;;;;;5049254;28;20212;-70
2022/03/25 07:32:49;;;;;;;66.73;44.83;;;;;;;;;;5045768;28;20587;-71
2022/03/25 07:35:14;;;;;;;69.70;47.77;;;;;;;;;;5051569;28;20181;-70
2022/03/25 07:37:40;;;;;;;70.40;47.20;;;;;;;;;;5054791;28;20257;-70
2022/03/25 07:40:08;;;;;;;71.07;46.07;;;;;;;;;;5044998;28;20867;-69
2022/03/25 07:42:34;;;;;;;71.60;46.80;;;;;;;;;;5036647;28;20640;-70
2022/03/25 07:45:01;;;;;;;68.70;45.17;;;;;;;;;;5046543;28;20182;-70
2022/03/25 07:47:26;;;;;;;64.97;42.73;;;;;;;;;;5050786;28;20698;-68
2022/03/25 07:49:51;;;;;;;63.17;44.17;;;;;;;;;;5044214;28;20174;-70
2022/03/25 07:52:17;;;;;;;65.10;43.23;;;;;;;;;;5045256;28;20651;-68
2022/03/25 07:54:42;;;;;;;62.37;41.20;;;;;;;;;;5049820;28;20176;-69
2022/03/25 07:57:07;;;;;;;68.83;42.90;;;;;;;;;;5038991;28;20201;-68
2022/03/25 07:59:32;;;;;;;60.80;40.23;;;;;;;;;;5050442;28;20221;-69
2022/03/25 08:01:58;;;;;;;61.77;41.60;;;;;;;;;;5047268;28;20178;-68
2022/03/25 08:04:24;;;;;;;60.63;41.50;;;;;;;;;;5048386;28;20550;-69
2022/03/25 08:06:53;;;;;;;61.23;42.00;;;;;;;;;;5047674;28;20260;-68
2022/03/25 08:09:18;;;;;;;62.37;41.27;;;;;;;;;;5045261;28;20257;-68
2022/03/25 08:11:45;;;;;;;61.50;42.00;;;;;;;;;;5045213;28;20273;-69
2022/03/25 08:14:11;;;;;;;58.00;40.90;;;;;;;;;;5042154;28;20611;-69
2022/03/25 08:16:37;;;;;;;56.63;40.30;;;;;;;;;;5045946;28;20200;-69
2022/03/25 08:19:02;;;;;;;61.33;41.77;;;;;;;;;;5047461;28;20202;-70
2022/03/25 08:21:27;;;;;;;58.67;40.20;;;;;;;;;;5050712;28;20181;-71
2022/03/25 08:29:22;;;;;;;53.97;40.10;;;;;;;;;;5050594;28;20184;-71
2022/03/25 08:31:47;;;;;;;56.42;40.72;;;;;;;;;;5044255;28;20204;-68
2022/03/25 08:34:16;;;;;;;56.50;40.90;;;;;;;;;;5048057;28;20754;-68
2022/03/25 08:36:41;;;;;;;55.05;39.72;;;;;;;;;;5048422;28;20198;-68
2022/03/25 08:39:07;;;;;;;56.78;40.28;;;;;;;;;;5046223;28;20595;-68
2022/03/25 08:41:32;;;;;;;53.88;39.03;;;;;;;;;;5049130;28;20172;-68
2022/03/25 08:43:57;;;;;;;51.97;38.10;;;;;;;;;;5046633;28;20214;-70
2022/03/25 08:46:23;;;;;;;56.78;38.47;;;;;;;;;;5044855;28;20276;-70
2022/03/25 08:48:48;;;;;;;59.90;41.10;;;;;;;;;;5043697;28;20198;-70
2022/03/25 08:51:13;;;;;;;50.95;38.35;;;;;;;;;;5044331;28;20212;-70
2022/03/25 08:53:39;;;;;;;52.55;38.75;;;;;;;;;;5038887;28;20200;-70
2022/03/25 08:56:04;;;;;;;50.20;38.28;;;;;;;;;;5049873;28;20300;-70
2022/03/25 08:58:29;;;;;;;52.33;37.13;;;;;;;;;;5051540;28;20666;-69
2022/03/25 09:00:54;;;;;;;52.08;38.65;;;;;;;;;;5046603;28;20185;-70
2022/03/25 09:03:19;;;;;;;55.53;39.05;;;;;;;;;;5050134;28;20548;-68
2022/03/25 09:05:45;;;;;;;49.55;38.92;;;;;;;;;;5047339;28;20174;-70
2022/03/25 09:08:10;;;;;;;52.25;37.63;;;;;;;;;;5050122;28;20240;-70
2022/03/25 09:10:35;;;;;;;57.50;38.92;;;;;;;;;;5049089;28;20174;-69
2022/03/25 09:13:00;;;;;;;53.25;39.05;;;;;;;;;;5051101;28;20227;-69
2022/03/25 09:15:26;;;;;;;53.80;38.97;;;;;;;;;;5043753;28;20186;-68
2022/03/25 09:17:51;;;;;;;51.13;37.70;;;;;;;;;;5054410;28;20201;-68
2022/03/25 09:20:16;;;;;;;50.13;38.53;;;;;;;;;;5048982;28;20292;-68
2022/03/25 09:22:42;;;;;;;56.33;38.47;;;;;;;;;;5050656;28;20177;-68
2022/03/25 09:25:08;;;;;;;56.83;38.85;;;;;;;;;;5051254;28;20196;-69
2022/03/25 09:27:33;;;;;;;49.42;38.50;;;;;;;;;;5052906;28;20205;-67
2022/03/25 09:29:58;;;;;;;46.65;36.42;;;;;;;;;;5057980;28;20180;-70
2022/03/25 09:32:23;;;;;;;52.57;39.07;;;;;;;;;;5042257;28;20261;-68
2022/03/25 09:37:42;;;;;;;44.80;33.88;;;;;;;;;;5043666;28;20278;-69
2022/03/25 09:40:10;;;;;;;50.80;37.25;;;;;;;;;;5047580;28;20223;-67
2022/03/25 09:42:36;;;;;;;48.25;35.63;;;;;;;;;;5050315;28;20690;-69
2022/03/25 09:45:03;;;;;;;49.20;37.63;;;;;;;;;;5044565;28;20597;-67
2022/03/25 09:47:30;;;;;;;46.85;33.70;;;;;;;;;;5041101;28;20193;-69
2022/03/25 09:49:55;;;;;;;44.42;34.50;;;;;;;;;;5050978;28;20327;-69
2022/03/25 09:52:21;;;;;;;51.17;35.47;;;;;;;;;;5053622;28;20712;-69
2022/03/25 09:54:46;;;;;;;50.95;36.53;;;;;;;;;;5049094;28;20204;-69
2022/03/25 09:57:11;;;;;;;43.50;34.35;;;;;;;;;;5053143;28;20197;-69
2022/03/25 09:59:37;;;;;;;44.33;34.30;;;;;;;;;;5054245;28;20213;-69
2022/03/25 10:02:02;;;;;;;45.15;32.10;;;;;;;;;;5049733;28;20414;-69
2022/03/25 10:04:44;;;;;;;44.00;33.42;;;;;;;;;;5051755;28;20174;-68
2022/03/25 10:07:16;;;;;;;47.60;34.78;;;;;;;;;;5051613;28;20205;-69
2022/03/25 10:09:41;;;;;;;41.15;31.13;;;;;;;;;;5048013;28;20177;-69
2022/03/25 10:12:21;;;;;;;43.70;31.08;;;;;;;;;;5046097;28;20190;-68
2022/03/25 10:14:49;;;;;;;44.92;32.30;;;;;;;;;;5050000;28;20181;-70
2022/03/25 10:17:14;;;;;;;38.85;29.05;;;;;;;;;;5053986;28;20208;-70
2022/03/25 10:19:46;;;;;;;37.72;27.50;;;;;;;;;;5055489;28;20209;-67
2022/03/25 10:22:11;;;;;;;40.03;27.83;;;;;;;;;;5051506;28;20185;-69
2022/03/25 10:24:36;;;;;;;47.30;30.75;;;;;;;;;;5054575;28;20223;-69
2022/03/25 10:27:04;;;;;;;38.27;28.37;;;;;;;;;;5050710;28;20197;-68
2022/03/25 10:29:29;;;;;;;37.03;27.50;;;;;;;;;;5050261;28;20434;-69
2022/03/25 10:32:11;;;;;;;34.17;27.10;;;;;;;;;;5051599;28;20223;-69
2022/03/25 10:34:37;;;;;;;35.25;25.10;;;;;;;;;;5052019;28;20174;-67
2022/03/25 10:37:04;;;;;;;38.83;27.20;;;;;;;;;;5052816;28;20197;-67
2022/03/25 10:39:29;;;;;;;38.10;25.02;;;;;;;;;;5049982;28;20722;-67
2022/03/25 10:41:59;;;;;;;29.95;22.35;;;;;;;;;;5050191;28;20185;-67
2022/03/25 10:44:32;;;;;;;34.67;22.52;;;;;;;;;;5051289;28;20264;-67
2022/03/25 10:46:57;;;;;;;27.83;19.20;;;;;;;;;;5044950;28;20185;-66
2022/03/25 10:49:22;;;;;;;24.48;18.13;;;;;;;;;;5048147;28;20196;-67
2022/03/25 10:51:51;;;;;;;25.13;18.67;;;;;;;;;;5056158;28;20607;-67
2022/03/25 10:54:17;;;;;;;26.27;18.40;;;;;;;;;;5045496;28;20678;-67
2022/03/25 10:56:49;;;;;;;31.27;18.93;;;;;;;;;;5050846;28;20185;-68
2022/03/25 10:59:30;;;;;;;26.85;18.13;;;;;;;;;;5050782;28;20508;-67
2022/03/25 11:01:59;;;;;;;26.20;18.10;;;;;;;;;;5049678;28;20177;-67
2022/03/25 11:04:25;;;;;;;24.95;17.52;;;;;;;;;;5050276;28;20824;-68
2022/03/25 11:06:50;;;;;;;29.00;18.45;;;;;;;;;;5050556;28;20675;-68
2022/03/25 11:09:16;;;;;;;28.08;18.65;;;;;;;;;;5045412;28;20189;-68
2022/03/25 11:11:42;;;;;;;23.10;17.45;;;;;;;;;;5049369;28;20238;-67
2022/03/25 11:14:08;;;;;;;30.10;18.92;;;;;;;;;;5049792;28;20693;-67
2022/03/25 11:16:35;;;;;;;23.63;18.35;;;;;;;;;;5051191;28;20178;-67
2022/03/25 11:19:00;;;;;;;21.85;17.95;;;;;;;;;;5050889;28;20202;-68
2022/03/25 11:21:26;;;;;;;27.05;20.08;;;;;;;;;;5043837;28;20194;-68
2022/03/25 11:23:52;;;;;;;26.85;18.70;;;;;;;;;;5049071;28;20184;-67
2022/03/25 11:26:20;;;;;;;22.95;18.35;;;;;;;;;;5047535;28;20181;-67
2022/03/25 11:28:49;;;;;;;30.70;21.83;;;;;;;;;;5045586;28;20197;-68
2022/03/25 11:31:14;;;;;;;29.00;21.30;;;;;;;;;;5048860;28;20197;-68
2022/03/25 11:33:58;;;;;;;28.00;19.93;;;;;;;;;;5046084;28;20177;-68
2022/03/25 11:36:24;;;;;;;25.80;20.42;;;;;;;;;;5048301;28;20531;-68
2022/03/25 11:39:09;;;;;;;26.60;18.27;;;;;;;;;;5042135;28;20714;-68
2022/03/25 11:41:34;;;;;;;24.98;19.23;;;;;;;;;;5036720;28;20182;-68
2022/03/25 11:44:15;;;;;;;28.10;18.93;;;;;;;;;;5048587;28;20203;-68
2022/03/25 11:46:58;;;;;;;28.25;18.83;;;;;;;;;;5044686;28;20403;-68
2022/03/25 11:49:23;;;;;;;27.77;18.48;;;;;;;;;;5030443;28;20182;-68
2022/03/25 11:51:48;;;;;;;26.05;19.17;;;;;;;;;;5043117;28;20186;-68
2022/03/25 11:54:32;;;;;;;25.87;19.30;;;;;;;;;;5044668;28;20182;-69
2022/03/25 11:56:58;;;;;;;29.58;19.80;;;;;;;;;;5045181;28;20446;-68
2022/03/25 11:59:24;;;;;;;29.48;20.60;;;;;;;;;;5049341;28;20208;-68
2022/03/25 12:01:49;;;;;;;25.60;19.50;;;;;;;;;;5047163;28;20170;-68
2022/03/25 12:04:32;;;;;;;22.00;17.83;;;;;;;;;;5045996;28;20506;-68
2022/03/25 12:06:59;;;;;;;31.95;21.60;;;;;;;;;;5039185;28;20636;-68
2022/03/25 12:09:33;;;;;;;28.50;19.95;;;;;;;;;;5047049;28;20186;-68
2022/03/25 12:11:58;;;;;;;28.00;19.13;;;;;;;;;;5049689;28;20206;-69
2022/03/25 12:14:31;;;;;;;25.88;18.75;;;;;;;;;;5048537;28;20685;-68
2022/03/25 12:17:06;;;;;;;25.30;18.83;;;;;;;;;;5049221;28;20313;-68
2022/03/25 12:19:39;;;;;;;24.92;19.42;;;;;;;;;;5047751;28;20252;-68
2022/03/25 12:22:19;;;;;;;27.55;19.48;;;;;;;;;;5045121;28;20646;-68
2022/03/25 12:24:48;;;;;;;26.02;17.80;;;;;;;;;;5044893;28;20185;-68
2022/03/25 12:27:14;;;;;;;28.33;17.73;;;;;;;;;;5049837;28;20197;-69
2022/03/25 12:29:41;;;;;;;23.45;16.52;;;;;;;;;;5048315;28;20261;-69
2022/03/25 12:32:07;;;;;;;25.27;18.95;;;;;;;;;;5050209;28;20643;-68
2022/03/25 12:34:40;;;;;;;24.40;18.88;;;;;;;;;;5047875;28;20655;-68
2022/03/25 12:37:08;;;;;;;26.13;18.83;;;;;;;;;;5049936;28;20312;-68
2022/03/25 12:39:33;;;;;;;23.45;17.83;;;;;;;;;;5045115;28;20227;-68
2022/03/25 12:41:58;;;;;;;26.23;19.02;;;;;;;;;;5049978;28;20181;-68
2022/03/25 12:44:28;;;;;;;26.20;19.43;;;;;;;;;;5052778;28;20193;-68
2022/03/25 12:46:56;;;;;;;25.20;19.08;;;;;;;;;;5049099;28;20414;-68
2022/03/25 12:49:22;;;;;;;25.95;18.88;;;;;;;;;;5046188;28;20178;-68
2022/03/25 12:51:57;;;;;;;23.45;17.17;;;;;;;;;;5041187;28;20189;-72
2022/03/25 12:54:22;;;;;;;30.50;18.35;;;;;;;;;;5039930;28;20243;-71
2022/03/25 12:56:55;;;;;;;28.52;18.20;;;;;;;;;;5046077;28;20297;-72
2022/03/25 12:59:30;;;;;;;25.98;18.00;;;;;;;;;;5048872;28;20205;-72
2022/03/25 13:01:55;;;;;;;26.13;19.75;;;;;;;;;;5047390;28;20693;-72
2022/03/25 13:04:28;;;;;;;24.83;19.55;;;;;;;;;;5049940;28;20201;-72
2022/03/25 13:06:57;;;;;;;26.45;20.52;;;;;;;;;;5047948;28;20173;-71
2022/03/25 13:09:22;;;;;;;29.33;20.15;;;;;;;;;;5048852;28;20599;-71
2022/03/25 13:11:54;;;;;;;25.40;18.60;;;;;;;;;;5048924;28;20273;-70
2022/03/25 13:14:21;;;;;;;24.48;18.80;;;;;;;;;;5049711;28;20261;-70
2022/03/25 13:16:47;;;;;;;33.03;19.92;;;;;;;;;;5047127;28;20224;-73
2022/03/25 13:19:12;;;;;;;29.27;21.63;;;;;;;;;;5047214;28;20209;-72
2022/03/25 13:21:38;;;;;;;29.33;21.77;;;;;;;;;;5051652;28;20534;-73
2022/03/25 13:24:03;;;;;;;39.10;22.63;;;;;;;;;;5051872;28;20651;-71
2022/03/25 13:26:30;;;;;;;29.77;21.98;;;;;;;;;;5051706;28;20481;-70
2022/03/25 13:28:55;;;;;;;30.13;20.77;;;;;;;;;;5052962;28;20198;-73
2022/03/25 13:31:21;;;;;;;33.20;21.17;;;;;;;;;;5052028;28;20778;-68
2022/03/25 13:33:50;;;;;;;31.15;21.02;;;;;;;;;;5049091;28;20174;-68
2022/03/25 13:36:23;;;;;;;30.38;21.10;;;;;;;;;;5049125;28;20184;-68
2022/03/25 13:38:48;;;;;;;28.02;21.13;;;;;;;;;;5046558;28;20217;-68
2022/03/25 13:41:17;;;;;;;27.35;20.52;;;;;;;;;;5051274;28;20177;-68
2022/03/25 13:43:44;;;;;;;32.38;22.25;;;;;;;;;;5052277;28;20173;-69
2022/03/25 13:46:12;;;;;;;30.35;23.38;;;;;;;;;;5052445;28;20232;-68
2022/03/25 13:48:40;;;;;;;29.40;22.70;;;;;;;;;;5048976;28;20195;-68
2022/03/25 13:51:16;;;;;;;30.02;22.00;;;;;;;;;;5054524;28;20181;-68
2022/03/25 13:53:41;;;;;;;30.52;21.95;;;;;;;;;;5043615;28;20201;-68
2022/03/25 13:56:17;;;;;;;31.07;21.43;;;;;;;;;;5027301;28;20324;-68
2022/03/25 13:58:53;;;;;;;30.25;22.33;;;;;;;;;;5050076;28;20586;-68
2022/03/25 14:01:21;;;;;;;32.78;23.63;;;;;;;;;;5052902;28;20177;-68
2022/03/25 14:04:01;;;;;;;29.13;22.92;;;;;;;;;;5050278;28;20261;-68
2022/03/25 14:06:32;;;;;;;30.08;23.38;;;;;;;;;;5050859;28;20202;-68
2022/03/25 14:08:57;;;;;;;32.65;23.85;;;;;;;;;;5045769;28;20300;-68
2022/03/25 14:11:31;;;;;;;36.43;25.57;;;;;;;;;;5050111;28;20183;-68
2022/03/25 14:14:00;;;;;;;32.47;22.15;;;;;;;;;;5047458;28;20992;-67
2022/03/25 14:16:30;;;;;;;30.08;23.50;;;;;;;;;;5051576;28;20183;-67
2022/03/25 14:18:55;;;;;;;29.38;21.92;;;;;;;;;;5045560;28;20234;-67
2022/03/25 14:21:31;;;;;;;27.33;21.30;;;;;;;;;;5044831;28;20233;-67